Terminal Aerodrome Forecast
Issued by NWS Memphis, TN

Home | Current Version | Previous Version | Text Only | Print | Product List | Glossary On
Versions: 1 2 3 4 5 6 7 8 9 10 11 12 13 14 15 16 17
000
FTUS44 KMEG 012320
TAFMKL
TAF
KMKL 012320Z 0200/0224 26012G20KT P6SM VCSH SCT012 BKN030
     FM020200 29012G20KT P6SM BKN030
     FM020400 31016G24KT P6SM OVC015
     FM021600 34010KT P6SM SCT025=

USA.gov is the U.S. government's official web portal to all federal, state and local government web resources and services.